• Join FlightAware (Why Join?)
  • Login
  • US Flag 
12:06AM EST


 

Airport Tracker/Info


-or-


 

Live Flight TrackerFlight Track Log ✈ GJS3707 ✈ 18-Sep-2013 ✈ KBOI - KORD

Flight Track Log - Related Links

Times and Time Zones

All times are in EDT time to prevent confusion due to time zone crossing. See the GJS3707 flight status page for this flight to view local times or setup timezone preferences in your user account.

Time Position Orientation Groundspeed Altitude Reporting Facility
EDT Latitude Longitude Course Direction KTS MPH feet Rate Location/Type
03:04PM 43.5922 -116.3061 295° West 214 246 5,200  Level Salt Lake Center
03:04PM 43.5933 -116.3172 278° West 196 226 5,500 1,560 Climbing Salt Lake Center
03:05PM 43.6431 -116.3389 342° North 248 285 6,800 1,320 Climbing Salt Lake Center
03:05PM 43.6494 -116.3364 16° North 244 281 6,900 1,980 Climbing Salt Lake Center
03:06PM 43.6681 -116.2306 76° East 290 334 9,300 1,920 Climbing Salt Lake Center
03:07PM 43.6212 -115.3533 76° East  Level Estimated
03:07PM 43.6881 -116.1150 77° East 311 358 10,900  Level Salt Lake Center
03:08PM 43.6318 -115.1793 82° East  Level Estimated
03:08PM 43.7075 -115.9581 80° East 345 397 12,900  Level Salt Lake Center
03:09PM 43.7233 -115.8172 81° East 367 422 14,600 1,560 Climbing Salt Lake Center
03:10PM 43.7408 -115.6731 80° East 380 437 16,200 1,500 Climbing Salt Lake Center
03:11PM 43.7575 -115.5217 81° East 396 456 17,800 1,620 Climbing Salt Lake Center
03:12PM 43.7758 -115.3697 80° East 402 463 19,600 1,500 Climbing Salt Lake Center
03:13PM 43.7969 -115.1808 81° East 416 479 20,900 1,140 Climbing Salt Lake Center
03:14PM 43.8158 -115.0161 81° East 433 498 22,000 1,200 Climbing Salt Lake Center
03:15PM 43.8339 -114.8475 81° East 444 511 23,400 1,320 Climbing Salt Lake Center
03:16PM 43.8517 -114.6786 82° East 446 513 24,800 1,200 Climbing Salt Lake Center
03:17PM 43.8711 -114.5097 81° East 447 514 25,900 900 Climbing Salt Lake Center
03:18PM 43.8889 -114.3339 82° East 460 529 26,700 720 Climbing Salt Lake Center
03:19PM 43.9114 -114.1169 82° East 475 547 27,500 780 Climbing Salt Lake Center
03:20PM 43.9311 -113.9350 81° East 480 552 28,400 840 Climbing Salt Lake Center
03:21PM 43.9500 -113.7475 82° East 482 555 29,300 840 Climbing Salt Lake Center
03:22PM 43.9667 -113.5703 82° East 484 557 30,200 900 Climbing Salt Lake Center
03:24PM 43.9836 -113.3644 83° East 482 555 31,200 900 Climbing Salt Lake Center
03:25PM 44.0017 -113.1861 82° East 486 559 32,100 780 Climbing Salt Lake Center
03:26PM 44.0208 -112.9806 83° East 483 556 32,900 660 Climbing Salt Lake Center
03:27PM 44.0378 -112.8022 82° East 486 559 33,500 480 Climbing Salt Lake Center
03:28PM 44.0569 -112.5925 83° East 489 563 33,900 420 Climbing Salt Lake Center
03:29PM 44.0711 -112.4086 84° East 499 574 34,400 540 Climbing Salt Lake Center
03:30PM 44.0886 -112.1903 84° East 508 585 35,100 660 Climbing Salt Lake Center
03:31PM 44.0903 -112.0106 89° East 488 562 35,800 660 Climbing Salt Lake Center
03:32PM 44.0917 -111.7989 89° East 491 565 36,500 540 Climbing Salt Lake Center
03:33PM 44.0933 -111.6217 89° East 485 558 37,000 240 Climbing Salt Lake Center
03:34PM 44.0936 -111.4111 90° East 490 564 37,000  Level Salt Lake Center
03:35PM 44.0939 -111.2272 90° East 499 574 37,000  Level Salt Lake Center
03:36PM 44.0939 -111.0119 90° East 503 579 37,000  Level Salt Lake Center
03:37PM 44.0933 -110.8239 90° East 509 586 37,000  Level Salt Lake Center
03:38PM 44.0931 -110.6028 90° East 512 589 37,000  Level Salt Lake Center
03:39PM 44.0928 -110.4164 90° East 507 583 37,000  Level Salt Lake Center
03:40PM 44.0911 -110.1986 91° East 505 581 37,000  Level Salt Lake Center
03:41PM 44.0906 -110.0125 90° East 503 579 37,000  Level Salt Lake Center
03:42PM 44.0878 -109.7953 91° East 505 581 37,000  Level Salt Lake Center
03:44PM 44.0844 -109.5520 91° East  Level FlightAware Approximate
03:47PM 44.0725 -108.8092 92° East 499 574 37,000  Level Salt Lake Center
03:48PM 44.0681 -108.6117 92° East 507 583 37,000  Level Salt Lake Center
03:49PM 44.0625 -108.4089 92° East 521 600 37,000  Level Salt Lake Center
03:50PM 44.0572 -108.2097 92° East 521 600 37,000  Level Salt Lake Center
03:51PM 44.0592 -108.3215 91° East  Level FlightAware Approximate
03:51PM 44.0508 -107.9719 92° East 519 597 37,000  Level Salt Lake Center
03:52PM 44.0545 -108.1458 92° East  Level FlightAware Approximate
03:52PM 44.0464 -107.7717 92° East 522 601 37,000  Level Salt Lake Center
03:53PM 44.0496 -107.9702 92° East  Level FlightAware Approximate
03:53PM 44.0394 -107.5708 93° East 524 603 37,000  Level Salt Lake Center
03:55PM 44.0336 -107.3672 92° East 529 609 37,000  Level Salt Lake Center
03:56PM 44.0281 -107.1658 92° East 528 608 37,000  Level Salt Lake Center
03:57PM 44.0200 -106.9656 93° East 523 602 37,000  Level Salt Lake Center
03:58PM 44.0103 -106.7217 93° East 530 610 37,000  Level Salt Lake Center
03:59PM 44.0031 -106.5172 93° East 533 613 37,000  Level Salt Lake Center
04:00PM 44.0008 -106.2919 91° East 535 616 37,000  Level Denver Center
04:01PM 44.0028 -106.0928 89° East 537 618 37,000  Level Denver Center
04:02PM 44.0100 -105.8614 87° East 535 616 37,000  Level Denver Center
04:03PM 44.0331 -105.6642 81° East 536 617 37,000  Level Denver Center
04:04PM 44.0836 -105.4369 73° East 543 625 37,000 120 Level Denver Center
04:05PM 44.1292 -105.2464 72° East 544 626 37,300 540 Climbing Denver Center
04:06PM 44.1906 -105.0286 68° East 542 624 38,200 660 Climbing Denver Center
04:07PM 44.2314 -104.8775 69° East 531 611 38,700 360 Climbing Denver Center
04:08PM 44.2842 -104.6617 71° East 526 605 39,000 120 Climbing Denver Center
04:09PM 44.3283 -104.4475 74° East 519 597 39,000  Level Denver Center
04:10PM 44.3233 -104.2900 92° East 513 590 39,000  Level Denver Center
04:11PM 44.3078 -104.0411 95° East 505 581 39,000  Level Denver Center
04:12PM 44.2950 -103.8514 95° East 510 587 39,000  Level Denver Center
04:13PM 44.2797 -103.6289 95° East 516 594 39,000  Level Denver Center
04:14PM 44.2669 -103.4378 95° East 516 594 39,000  Level Denver Center
04:15PM 44.2517 -103.2158 95° East 515 593 39,000  Level Denver Center
04:16PM 44.2367 -103.0131 96° East 511 588 39,000  Level Denver Center
04:17PM 44.2214 -102.8172 96° East 512 589 39,000  Level Denver Center
04:18PM 44.2078 -102.6225 96° East 508 585 39,000  Level Denver Center
04:19PM 44.1922 -102.4267 96° East 509 586 39,000  Level Denver Center
04:20PM 44.1750 -102.2292 97° East 513 590 39,000  Level Denver Center
04:21PM 44.1586 -102.0317 97° East 514 592 39,000  Level Denver Center
04:22PM 44.1353 -101.7906 98° East 522 601 39,000  Level Denver Center
04:23PM 44.1183 -101.5908 97° East 523 602 39,000  Level Denver Center
04:25PM 44.1086 -101.3919 94° East 521 600 39,000  Level Denver Center
04:26PM 44.0989 -101.2008 94° East 507 583 39,000  Level Denver Center
04:27PM 44.0892 -101.0144 94° East 492 566 39,000  Level Denver Center
04:28PM 44.0822 -100.8292 93° East 484 557 39,000  Level Denver Center
04:29PM 44.0664 -100.5628 95° East 496 571 39,000  Level Minneapolis Center
04:30PM 44.0533 -100.3692 95° East 502 578 39,000  Level Minneapolis Center
04:31PM 44.0403 -100.1431 95° East 495 570 39,000  Level Minneapolis Center
04:32PM 44.0275 -99.9569 95° East 490 564 39,000  Level Minneapolis Center
04:33PM 44.0167 -99.7708 95° East 487 560 39,000  Level Minneapolis Center
04:34PM 44.0042 -99.5839 95° East 488 562 39,000  Level Minneapolis Center
04:35PM 43.9906 -99.3939 96° East 493 567 39,000  Level Minneapolis Center
04:36PM 43.9753 -99.1644 95° East 498 573 39,000  Level Minneapolis Center
04:37PM 43.9611 -98.9703 96° East 504 580 39,000  Level Minneapolis Center
04:38PM 43.9472 -98.7772 96° East 506 582 39,000  Level Minneapolis Center
04:39PM 43.9317 -98.5797 96° East 505 581 39,000  Level Minneapolis Center
04:40PM 43.9183 -98.3906 96° East 499 574 39,000  Level Minneapolis Center
04:41PM 43.9022 -98.2011 97° East 497 572 39,000  Level Minneapolis Center
04:42PM 43.8842 -97.9753 96° East 495 570 39,000  Level Minneapolis Center
04:43PM 43.8681 -97.7881 97° East 492 566 39,000  Level Minneapolis Center
04:45PM 43.8522 -97.6031 97° East 488 562 39,000  Level Minneapolis Center
04:46PM 43.8356 -97.4172 97° East 489 563 39,000  Level Minneapolis Center
04:47PM 43.8203 -97.2306 96° East 490 564 39,000  Level Minneapolis Center
04:48PM 43.8708 -97.0200 72° East 492 566 39,000  Level Minneapolis Center
04:49PM 43.9814 -96.9178 34° Northeast 484 557 39,000  Level Minneapolis Center
04:50PM 44.1008 -96.8353 26° Northeast 478 550 39,000  Level Minneapolis Center
04:51PM 44.2033 -96.7147 40° Northeast 490 564 39,000  Level Minneapolis Center
04:52PM 44.2597 -96.5422 65° Northeast 492 566 39,000  Level Minneapolis Center
04:53PM 44.2592 -96.3542 90° East 488 562 39,000  Level Minneapolis Center
04:54PM 44.2158 -96.1417 106° East 491 565 39,000  Level Minneapolis Center
04:55PM 44.1811 -95.9681 106° East 501 577 39,000  Level Minneapolis Center
04:56PM 44.1433 -95.7850 106° East 494 568 39,000  Level Minneapolis Center
04:57PM 44.0964 -95.5636 106° East 497 572 39,000  Level Minneapolis Center
04:58PM 44.0569 -95.3794 107° East 498 573 39,000  Level Minneapolis Center
04:59PM 44.0156 -95.1919 107° East 506 582 39,000  Level Minneapolis Center
05:00PM 43.9747 -95.0075 107° East 504 580 39,000  Level Minneapolis Center
05:01PM 43.9350 -94.8242 107° East 499 574 39,000  Level Minneapolis Center
05:02PM 43.8939 -94.6406 107° East 501 577 39,000  Level Minneapolis Center
05:03PM 43.8458 -94.4244 107° East 493 567 39,000  Level Minneapolis Center
05:04PM 43.8050 -94.2447 107° East 492 566 39,000  Level Minneapolis Center
05:05PM 43.7614 -94.0556 108° East 494 568 39,000  Level Minneapolis Center
05:06PM 43.7206 -93.8775 108° East 490 564 39,000  Level Minneapolis Center
05:07PM 43.6792 -93.6978 108° East 493 567 39,000  Level Minneapolis Center
05:08PM 43.6378 -93.5181 108° East 494 568 39,000  Level Minneapolis Center
05:09PM 43.5964 -93.3386 108° East 494 568 39,000  Level Minneapolis Center
05:10PM 43.5503 -93.1478 108° East 494 568 39,000 -300 Level Minneapolis Center
05:11PM 43.5072 -92.9686 108° East 495 570 38,500 -840 Descending Minneapolis Center
05:12PM 43.4561 -92.7550 108° East 495 570 37,300 -720 Descending Minneapolis Center
05:14PM 43.4131 -92.5778 108° East 493 567 37,000 -180 Descending Minneapolis Center
05:15PM 43.3692 -92.4017 109° East 491 565 37,000  Level Minneapolis Center
05:16PM 43.3253 -92.2225 109° East 496 571 37,000 -840 Level Minneapolis Center
05:17PM 43.2806 -92.0406 109° East 504 580 35,300 -2,160 Descending Minneapolis Center
05:18PM 43.2289 -91.8247 108° East 502 578 32,600 -2,040 Descending Minneapolis Center
05:19PM 43.1869 -91.6606 109° East 472 543 31,100 -780 Descending Minneapolis Center
05:20PM 43.1344 -91.5044 115° Southeast 454 522 31,000 -60 Descending Minneapolis Center
05:21PM 43.0775 -91.3439 116° Southeast 462 532 31,000 -60 Level Minneapolis Center
05:22PM 43.0203 -91.1825 116° Southeast 469 540 30,900 -1,200 Descending Minneapolis Center
05:23PM 42.9639 -91.0228 116° Southeast 470 541 28,600 -2,400 Descending Minneapolis Center
05:24PM 42.8994 -90.8403 116° Southeast 453 521 25,900 -1,980 Descending Minneapolis Center
05:25PM 42.8500 -90.6964 115° Southeast 433 498 24,300 -900 Descending Chicago Center
05:26PM 42.7847 -90.5144 116° Southeast 449 517 24,000 -180 Descending Chicago Center
05:27PM 42.7292 -90.3583 116° Southeast 461 531 24,000  Level Chicago Center
05:28PM 42.6739 -90.2069 116° Southeast 450 518 24,000  Level Chicago Center
05:29PM 42.6194 -90.0539 116° Southeast 453 521 24,000 -120 Level Chicago Center
05:30PM 42.5575 -89.8883 117° Southeast 459 528 23,800 -720 Descending Chicago Center
05:31PM 42.5147 -89.7322 110° East 447 514 22,500 -2,040 Descending Chicago Center
05:32PM 42.4978 -89.5444 97° East 432 497 19,600 -2,640 Descending Chicago Center
05:33PM 42.4856 -89.3906 96° East 413 475 17,100 -2,460 Descending Chicago Center
05:34PM 42.4725 -89.2414 97° East 401 461 14,600 -2,460 Descending Chicago Center
05:35PM 42.4603 -89.1011 97° East 385 443 12,100 -1,800 Descending Chicago Center
05:36PM 42.4428 -88.9667 100° East 370 426 11,000 -1,080 Descending Chicago Center
05:37PM 42.4231 -88.8356 101° East 315 362 9,900 -1,020 Descending Chicago Center
05:38PM 42.4064 -88.7203 101° East 311 358 9,000 -480 Descending Chicago Center
05:40PM 42.3892 -88.6044 101° East 313 360 9,000  Level Chicago Center
05:41PM 42.3719 -88.4906 102° East 312 359 9,000 -480 Level Chicago Center
05:42PM 42.3428 -88.3992 113° Southeast 272 313 8,000 -960 Descending Chicago Center
05:43PM 42.2917 -88.3106 128° Southeast 270 311 7,000 -1,020 Descending Chicago Center
05:44PM 42.2472 -88.2322 127° Southeast 264 304 5,900 -840 Descending Chicago Center
05:45PM 42.2022 -88.1658 132° Southeast 250 288 5,300 -540 Descending Chicago Center
05:46PM 42.1603 -88.1253 144° Southeast 195 224 4,900 -780 Descending Chicago Center
05:47PM 42.1119 -88.0739 142° Southeast 186 214 3,700 -1,020 Descending Chicago Center
05:48PM 42.0783 -88.0328 138° Southeast 174 200 2,900 -780 Descending Chicago Center
05:49PM 42.0458 -87.9956 140° Southeast 164 189 2,100 -780 Descending Chicago Center
05:50PM 42.0178 -87.9631 139° Southeast 151 174 1,400 -540 Descending Chicago Center
05:51PM 41.9856 -87.9292 142° Southeast 143 165 1,000 -420 Descending Chicago Center